Flight Track Log - Related Links

Times and Time Zones

All times are in EDT time to prevent confusion due to time zone crossing. See the DAL268 flight status page for this flight to view local times or setup timezone preferences in your user account.

Time Position Orientation Groundspeed Altitude Reporting Facility
EDT Latitude Longitude Course Direction KTS MPH feet Rate Location/Type
11:49PM 40.6490 -73.8190 308° West 174 200 500  Level FlightAware
11:50PM 40.6510 -73.8310 282° West 179 206 800 1,350 Climbing FlightAware
11:50PM 40.6400 -73.8620 245° Southwest 204 235 1,400 1,333 Climbing FlightAware
11:50PM 40.6280 -73.8760 222° Southwest 216 249 1,800 1,067 Climbing FlightAware
11:51PM 40.6010 -73.8920 204° Southwest 244 281 2,200 1,091 Climbing FlightAware
11:51PM 40.5690 -73.8830 168° South 272 313 2,800 1,800 Climbing FlightAware
11:51PM 40.5550 -73.8700 145° Southeast 270 311 3,400 2,400 Climbing FlightAware
11:52PM 40.5470 -73.8470 115° Southeast 268 308 4,000 2,667 Climbing FlightAware
11:52PM 40.5530 -73.8112 78° East 260 299 5,000 2,571 Climbing FlightAware ADS-B
11:52PM 40.5574 -73.8031 54° Northeast 262 302 5,200 2,000 Climbing FlightAware ADS-B
11:52PM 40.5634 -73.7914 56° Northeast 265 305 5,500 2,100 Climbing FlightAware ADS-B
11:53PM 40.5736 -73.7764 48° Northeast 272 313 5,900 1,929 Climbing FlightAware ADS-B
11:53PM 40.5873 -73.7560 49° Northeast 281 323 6,400 2,053 Climbing FlightAware ADS-B
11:53PM 40.6071 -73.7278 47° Northeast 285 328 7,200 2,667 Climbing FlightAware ADS-B
11:53PM 40.6191 -73.7094 49° Northeast 286 329 8,000 3,176 Climbing FlightAware ADS-B
11:53PM 40.6220 -73.7057 44° Northeast 284 327 8,100 2,727 Climbing FlightAware ADS-B
11:54PM 40.6298 -73.6965 42° Northeast 283 326 8,500 2,625 Climbing FlightAware ADS-B
11:54PM 40.6384 -73.6884 36° Northeast 285 328 8,800 2,250 Climbing FlightAware ADS-B
11:54PM 40.6474 -73.6813 31° Northeast 289 333 9,100 2,286 Climbing FlightAware ADS-B
11:54PM 40.6629 -73.6703 28° Northeast 293 337 9,600 2,233 Climbing FlightAware ADS-B
11:55PM 40.6990 -73.6439 29° Northeast 308 354 10,700 1,622 Climbing FlightAware ADS-B
11:55PM 40.7583 -73.6009 29° Northeast 323 372 11,600 1,385 Climbing FlightAware ADS-B
11:56PM 40.8096 -73.5628 29° Northeast 323 372 12,500 2,344 Climbing FlightAware ADS-B
11:56PM 40.8549 -73.5291 29° Northeast 375 432 14,100 2,613 Climbing FlightAware ADS-B
11:57PM 40.9010 -73.4960 28° Northeast 381 438 15,200 2,167 Climbing FlightAware
11:57PM 40.9097 -73.4890 31° Northeast 384 442 15,400 2,294 Climbing FlightAware ADS-B
11:57PM 40.9571 -73.4537 29° Northeast 392 451 16,500 2,095 Climbing FlightAware ADS-B
11:58PM 41.0100 -73.4147 29° Northeast 401 461 17,600 1,781 Climbing FlightAware ADS-B
11:59PM 41.0606 -73.3766 30° Northeast 412 474 18,400 2,188 Climbing FlightAware ADS-B
11:59PM 41.1516 -73.3096 29° Northeast 409 471 20,700 2,157 Climbing FlightAware ADS-B
12:00AM 41.2092 -73.2657 30° Northeast 416 479 21,600 1,254 Climbing FlightAware ADS-B
12:01AM 41.2646 -73.2247 29° Northeast 435 501 22,100 1,429 Climbing FlightAware ADS-B
12:01AM 41.3199 -73.1849 28° Northeast 436 502 23,100 1,469 Climbing FlightAware ADS-B
12:01AM 41.3510 -73.1608 30° Northeast 446 513 23,300 973 Climbing FlightAware ADS-B
12:02AM 41.3827 -73.1293 37° Northeast 456 525 23,700 1,059 Climbing FlightAware ADS-B
12:02AM 41.4026 -73.0991 49° Northeast 462 532 23,900 1,000 Climbing FlightAware ADS-B
12:02AM 41.4382 -73.0169 60° Northeast 471 542 24,500 1,065 Climbing FlightAware ADS-B
12:03AM 41.4693 -72.9425 61° Northeast 482 555 25,000 882 Climbing FlightAware ADS-B
12:04AM 41.5149 -72.8377 60° Northeast 495 570 25,500 919 Climbing FlightAware ADS-B
12:05AM 41.5990 -72.6480 59° Northeast 522 601 26,700 992 Climbing FlightAware
12:05AM 41.6550 -72.5650 48° Northeast 27,300 982 Climbing FlightAware
12:06AM 41.6860 -72.5260 43° Northeast 537 618 27,600 1,080 Climbing FlightAware
12:06AM 41.7560 -72.4440 41° Northeast 537 618 28,200 1,412 Climbing FlightAware
12:07AM 41.8450 -72.3410 41° Northeast 539 620 29,600 1,533 Climbing FlightAware
12:08AM 41.9280 -72.2490 39° Northeast 540 621 30,500 918 Climbing FlightAware
12:09AM 42.0160 -72.1520 39° Northeast 549 632 30,900 353 Climbing FlightAware
12:09AM 42.0870 -72.0710 40° Northeast 548 631 31,000 75 Climbing FlightAware
12:10AM 42.1620 -71.9850 40° Northeast 542 624 31,000  Level FlightAware
12:11AM 42.2490 -71.8840 41° Northeast 538 619 31,000  Level FlightAware
12:11AM 42.3340 -71.7850 41° Northeast 540 621 31,000  Level FlightAware
12:12AM 42.4100 -71.6970 41° Northeast 543 625 31,000  Level FlightAware
12:13AM 42.4980 -71.5950 41° Northeast 545 627 31,000  Level FlightAware
12:13AM 42.5750 -71.5050 41° Northeast 548 631 31,000  Level FlightAware
12:14AM 42.6590 -71.4060 41° Northeast 550 633 31,000  Level FlightAware
12:15AM 42.7360 -71.3170 40° Northeast 554 638 31,000  Level FlightAware
12:16AM 42.8260 -71.2090 41° Northeast 559 643 31,000  Level FlightAware
12:16AM 42.9050 -71.1160 41° Northeast 563 648 31,000  Level FlightAware
12:17AM 42.9820 -71.0220 42° Northeast 564 649 31,000  Level FlightAware
12:18AM 43.0690 -70.9180 41° Northeast 566 651 31,000  Level FlightAware
12:18AM 43.1480 -70.8240 41° Northeast 568 654 31,000  Level FlightAware
12:19AM 43.2260 -70.7310 41° Northeast 570 656 31,000  Level FlightAware
12:20AM 43.3170 -70.6200 42° Northeast 573 659 31,000  Level FlightAware
12:20AM 43.3960 -70.5230 42° Northeast 580 667 31,000  Level FlightAware
12:21AM 43.4860 -70.4150 41° Northeast 585 673 31,000  Level FlightAware
12:22AM 43.5670 -70.3150 42° Northeast 587 676 31,000  Level FlightAware
12:22AM 43.6500 -70.2130 42° Northeast 589 678 31,000  Level FlightAware
12:23AM 43.7390 -70.1020 42° Northeast 591 680 31,000  Level FlightAware
12:24AM 43.8210 -70.0010 42° Northeast 594 684 31,000  Level FlightAware
12:25AM 43.9160 -69.8810 42° Northeast 594 684 31,000  Level FlightAware
12:25AM 43.9980 -69.7790 42° Northeast 596 686 31,000  Level FlightAware
12:26AM 44.0870 -69.6690 42° Northeast 596 686 31,000  Level FlightAware
12:27AM 44.1700 -69.5630 42° Northeast 596 686 31,000  Level FlightAware
12:27AM 44.2490 -69.4620 42° Northeast 596 686 31,000  Level FlightAware
12:28AM 44.3420 -69.3430 42° Northeast 595 685 31,000  Level FlightAware
12:29AM 44.4120 -69.2550 42° Northeast 596 686 31,000  Level FlightAware
12:30AM 44.5150 -69.1220 43° Northeast 595 685 31,000  Level FlightAware
12:30AM 44.5950 -69.0210 42° Northeast 595 685 31,000  Level FlightAware
12:31AM 44.6790 -68.9130 42° Northeast 597 687 31,000  Level FlightAware
12:32AM 44.7690 -68.7940 43° Northeast 600 690 31,000  Level FlightAware
12:32AM 44.8500 -68.6880 43° Northeast 602 693 31,000  Level FlightAware
12:33AM 44.9450 -68.5650 42° Northeast 604 695 31,000  Level FlightAware
12:34AM 45.0260 -68.4600 42° Northeast 604 695 31,000  Level FlightAware
12:34AM 45.1050 -68.3550 43° Northeast 605 696 31,000  Level FlightAware
12:35AM 45.1950 -68.2270 45° Northeast 599 689 31,000  Level FlightAware
12:36AM 45.2660 -68.1060 50° Northeast 596 686 31,000  Level FlightAware
12:36AM 45.3360 -67.9810 51° Northeast 592 681 31,000  Level FlightAware
12:37AM 45.4480 -67.8110 47° Northeast 597 687 31,000  Level FlightAware
12:39AM 45.6110 -67.5860 44° Northeast 603 694 31,000  Level FlightAware
12:40AM 45.7520 -67.3950 43° Northeast 604 695 31,000  Level FlightAware
12:41AM 45.8950 -67.2030 43° Northeast 606 697 31,000  Level FlightAware
12:42AM 46.0590 -66.9780 44° Northeast 612 704 31,000  Level FlightAware
12:43AM 46.1610 -66.8370 44° Northeast 612 704 31,000  Level FlightAware
12:44AM 46.2590 -66.6980 44° Northeast 614 707 31,000  Level FlightAware
12:45AM 46.3290 -66.6010 44° Northeast 614 707 31,000  Level FlightAware
12:45AM 46.3980 -66.5040 44° Northeast 614 707 31,000  Level FlightAware
12:46AM 46.4850 -66.3820 44° Northeast 614 707 31,000  Level FlightAware
12:47AM 46.5550 -66.2850 44° Northeast 614 707 31,000  Level FlightAware
12:48AM 46.6240 -66.1870 44° Northeast 614 707 31,000  Level FlightAware
12:48AM 46.6930 -66.0890 44° Northeast 614 707 31,000  Level FlightAware
12:49AM 46.7800 -65.9670 44° Northeast 614 707 31,000  Level FlightAware
12:50AM 46.8500 -65.8690 44° Northeast 614 707 31,000  Level FlightAware
12:50AM 46.9190 -65.7710 44° Northeast 614 707 31,000  Level FlightAware
12:51AM 46.9890 -65.6720 44° Northeast 614 707 31,000  Level FlightAware
12:52AM 47.0580 -65.5740 44° Northeast 614 707 31,000  Level FlightAware
12:53AM 47.1450 -65.4510 44° Northeast 614 707 31,000  Level FlightAware
12:53AM 47.2140 -65.3520 44° Northeast 614 707 31,000  Level FlightAware
12:54AM 47.4500 -64.9667 44° Northeast 620 713 31,000  Level Gander Center
12:54AM 47.5000 -64.9000 42° Northeast 620 713 31,000 805 Level Moncton Center
12:55AM 47.6167 -64.7000 49° Northeast 620 713 32,100 900 Climbing Moncton Center
12:56AM 47.7333 -64.5167 47° Northeast 630 725 32,800 450 Climbing Moncton Center
12:57AM 47.8500 -64.3500 44° Northeast 630 725 33,000 100 Climbing Moncton Center
12:58AM 47.9833 -64.1500 45° Northeast 640 736 33,000  Level Moncton Center
12:59AM 48.1000 -63.9667 46° Northeast 640 736 33,000  Level Moncton Center
01:00AM 48.2333 -63.7667 45° Northeast 630 725 33,000  Level Moncton Center
01:01AM 48.3500 -63.5667 49° Northeast 630 725 33,000  Level Moncton Center
01:02AM 48.4833 -63.3833 42° Northeast 630 725 33,000  Level Moncton Center
01:03AM 48.6000 -63.1833 49° Northeast 620 713 33,000  Level Moncton Center
01:04AM 48.7167 -63.0000 46° Northeast 620 713 33,000  Level Moncton Center
01:05AM 48.8333 -62.8167 46° Northeast 640 736 33,000  Level Moncton Center
01:06AM 48.9500 -62.6167 48° Northeast 620 713 33,000  Level Moncton Center
01:07AM 49.0500 -62.4333 50° Northeast 620 713 33,000  Level Moncton Center
01:08AM 49.1833 -62.2167 47° Northeast 630 725 33,000  Level Moncton Center
01:09AM 49.3000 -62.0167 48° Northeast 620 713 33,000  Level Moncton Center
01:10AM 49.4167 -61.8167 48° Northeast 620 713 33,000  Level Moncton Center
01:11AM 49.5333 -61.6167 48° Northeast 620 713 33,000  Level Moncton Center
01:12AM 49.6500 -61.4167 48° Northeast 620 713 33,000  Level Moncton Center
01:13AM 49.7667 -61.2333 45° Northeast 610 702 33,000  Level Moncton Center
01:14AM 49.8833 -61.0500 45° Northeast 610 702 33,000  Level Moncton Center
01:15AM 49.9833 -60.8333 54° Northeast 620 713 33,000  Level Moncton Center
01:16AM 50.1167 -60.6333 44° Northeast 620 713 33,000  Level Moncton Center
01:17AM 50.2333 -60.4500 45° Northeast 620 713 33,000  Level Moncton Center
01:18AM 50.3333 -60.2333 54° Northeast 640 736 33,000  Level Moncton Center
01:19AM 50.4667 -60.0000 48° Northeast 630 725 33,000  Level Moncton Center
01:20AM 50.5667 -59.8167 49° Northeast 620 713 33,000  Level Moncton Center
01:21AM 50.6500 -59.6667 49° Northeast 630 725 33,000  Level Gander Center
01:22AM 50.7500 -59.4500 54° Northeast 620 713 33,000  Level Gander Center
01:23AM 50.8500 -59.2667 49° Northeast 620 713 33,000  Level Gander Center
01:24AM 50.9500 -59.0500 54° Northeast 620 713 33,000  Level Gander Center
01:24AM 51.0000 -58.9333 56° Northeast 620 713 33,000  Level Moncton Center
01:25AM 51.0667 -58.8000 51° Northeast 620 713 33,000  Level Gander Center
01:26AM 51.1667 -58.5833 54° Northeast 630 725 33,000  Level Gander Center
01:27AM 51.2667 -58.3667 54° Northeast 630 725 33,000  Level Gander Center
01:28AM 51.3833 -58.1500 49° Northeast 630 725 33,000  Level Gander Center
01:29AM 51.4833 -57.9000 57° Northeast 620 713 33,000  Level Gander Center
01:30AM 51.5667 -57.6833 58° Northeast 620 713 33,000 -100 Level Gander Center
01:31AM 51.6833 -57.4500 51° Northeast 620 713 32,800 -366 Descending Gander Center
01:31AM 51.7167 -57.3667 57° Northeast 620 713 32,500 -585 Descending Moncton Center
01:32AM 51.8167 -57.1333 55° Northeast 610 702 32,000 -306 Descending Moncton Center
01:33AM 51.8833 -57.0000 51° Northeast 610 702 32,000  Level Gander Center
01:34AM 51.9667 -56.7667 60° Northeast 610 702 32,000  Level Gander Center
01:34AM 52.0000 -56.7000 51° Northeast 610 702 32,000  Level Moncton Center
01:35AM 52.0667 -56.5667 51° Northeast 610 702 32,000  Level Gander Center
01:36AM 52.1500 -56.3167 61° Northeast 610 702 32,000  Level Gander Center
01:36AM 52.2000 -56.2500 39° Northeast 610 702 32,000  Level Moncton Center
01:37AM 52.3000 -56.0167 55° Northeast 610 702 32,000  Level Moncton Center
01:38AM 52.3833 -55.7833 60° Northeast 600 690 32,000  Level Moncton Center
01:39AM 52.4500 -55.6500 51° Northeast 600 690 32,000  Level Gander Center
01:39AM 52.4833 -55.5333 65° Northeast 600 690 32,000  Level Moncton Center
01:40AM 52.5667 -55.3333 56° Northeast 600 690 32,000  Level Moncton Center
01:41AM 52.6667 -55.0833 57° Northeast 600 690 32,000  Level Moncton Center
01:42AM 52.7167 -54.9833 50° Northeast 590 679 32,000  Level Gander Center
01:43AM 52.8000 -54.7500 59° Northeast 590 679 32,000  Level Gander Center
01:44AM 52.8667 -54.5667 59° Northeast 600 690 32,000  Level Gander Center
01:44AM 52.8833 -54.5167 61° Northeast 600 690 32,000  Level Gander Center
01:45AM 52.9667 -54.3333 53° Northeast 600 690 32,000  Level Gander Center
01:45AM 52.9667 -54.2833 90° East 600 690 32,000  Level Gander Center
01:46AM 53.0500 -54.1000 53° Northeast 600 690 32,000  Level Gander Center
01:46AM 53.0667 -54.0333 67° East 600 690 32,000  Level Gander Center
01:48AM 53.1667 -53.6000 69° East 590 679 32,000  Level Gander Center
01:48AM 53.1833 -53.5500 61° Northeast 590 679 32,000  Level Gander Center
01:49AM 53.2500 -53.3000 66° East 580 667 32,000  Level Gander Center
01:50AM 53.3000 -53.0500 71° East 580 667 32,000  Level Gander Center
01:51AM 53.3667 -52.8000 66° East 580 667 32,000  Level Gander Center
01:52AM 53.4167 -52.5500 71° East 580 667 32,000  Level Gander Center
01:53AM 53.4833 -52.3000 66° East 580 667 32,000 450 Level Gander Center
01:54AM 53.5333 -52.0333 72° East 580 667 32,900 500 Climbing Gander Center
01:55AM 53.6000 -51.7667 67° East 580 667 33,000 50 Climbing Gander Center
01:56AM 53.6500 -51.5333 70° East 580 667 33,000  Level Gander Center
01:58AM 53.7667 -50.9667 71° East 280 322 33,000 13 Level Gander Center
02:00AM 53.8420 -50.6594 67° East  Level FlightAware Approximate
02:07AM 54.1381 -49.0027 76° East  Level FlightAware Approximate
02:08AM 54.1703 -48.7600 77° East  Level FlightAware Approximate
02:09AM 54.2021 -48.5169 77° East  Level FlightAware Approximate
02:10AM 54.2333 -48.2734 78° East  Level FlightAware Approximate
02:11AM 54.2640 -48.0300 78° East  Level FlightAware Approximate
02:12AM 54.2942 -47.7862 78° East  Level FlightAware Approximate
02:13AM 54.3240 -47.5420 78° East  Level FlightAware Approximate
02:14AM 54.3532 -47.2976 78° East  Level FlightAware Approximate
02:15AM 54.3813 -47.0525 79° East  Level FlightAware Approximate
02:16AM 54.4082 -46.8069 79° East  Level FlightAware Approximate
02:17AM 54.4347 -46.5610 79° East  Level FlightAware Approximate
02:18AM 54.4607 -46.3148 80° East  Level FlightAware Approximate
02:19AM 54.4862 -46.0683 80° East  Level FlightAware Approximate
02:20AM 54.5112 -45.8214 80° East  Level FlightAware Approximate
02:21AM 54.5374 -45.5748 79° East  Level FlightAware Approximate
02:22AM 54.5635 -45.3281 80° East  Level FlightAware Approximate
02:23AM 54.5892 -45.0810 80° East  Level FlightAware Approximate
02:24AM 54.6143 -44.8336 80° East  Level FlightAware Approximate
02:25AM 54.6390 -44.5858 80° East  Level FlightAware Approximate
02:26AM 54.6631 -44.3378 80° East  Level FlightAware Approximate
02:27AM 54.6867 -44.0896 81° East  Level FlightAware Approximate
02:28AM 54.7099 -43.8410 81° East  Level FlightAware Approximate
02:29AM 54.7325 -43.5921 81° East  Level FlightAware Approximate
02:30AM 54.7546 -43.3430 81° East  Level FlightAware Approximate
02:31AM 54.7762 -43.0936 81° East  Level FlightAware Approximate
02:32AM 54.7973 -42.8439 82° East  Level FlightAware Approximate
02:33AM 54.8178 -42.5940 82° East  Level FlightAware Approximate
02:34AM 54.8379 -42.3438 82° East  Level FlightAware Approximate
02:35AM 54.8574 -42.0934 82° East  Level FlightAware Approximate
02:36AM 54.8764 -41.8427 82° East  Level FlightAware Approximate
02:37AM 54.8950 -41.5918 83° East  Level FlightAware Approximate
02:38AM 54.9129 -41.3407 83° East  Level FlightAware Approximate
02:39AM 54.9304 -41.0893 83° East  Level FlightAware Approximate
02:40AM 54.9474 -40.8378 83° East  Level FlightAware Approximate
02:41AM 54.9638 -40.5860 83° East  Level FlightAware Approximate
02:42AM 54.9797 -40.3340 84° East  Level FlightAware Approximate
02:43AM 54.9951 -40.0823 84° East  Level FlightAware Approximate
02:44AM 55.0069 -39.8299 86° East  Level FlightAware Approximate
02:45AM 55.0166 -39.5772 86° East  Level FlightAware Approximate
02:46AM 55.0258 -39.3260 86° East  Level FlightAware Approximate
02:47AM 55.0345 -39.0748 86° East  Level FlightAware Approximate
02:48AM 55.0426 -38.8235 87° East  Level FlightAware Approximate
02:49AM 55.0503 -38.5720 87° East  Level FlightAware Approximate
02:50AM 55.0574 -38.3205 87° East  Level FlightAware Approximate
02:51AM 55.0640 -38.0689 87° East  Level FlightAware Approximate
02:52AM 55.0700 -37.8172 87° East  Level FlightAware Approximate
02:53AM 55.0756 -37.5654 88° East  Level FlightAware Approximate
02:54AM 55.0806 -37.3136 88° East  Level FlightAware Approximate
02:55AM 55.0852 -37.0617 88° East  Level FlightAware Approximate
02:56AM 55.0892 -36.8097 88° East  Level FlightAware Approximate
02:57AM 55.0926 -36.5577 89° East  Level FlightAware Approximate
02:58AM 55.0956 -36.3057 89° East  Level FlightAware Approximate
02:59AM 55.0980 -36.0536 89° East  Level FlightAware Approximate
03:00AM 55.0999 -35.8015 89° East  Level FlightAware Approximate
03:01AM 55.1013 -35.5494 89° East  Level FlightAware Approximate
03:02AM 55.1022 -35.2972 90° East  Level FlightAware Approximate
03:03AM 55.1026 -35.0451 90° East  Level FlightAware Approximate
03:04AM 55.1024 -34.7929 90° East  Level FlightAware Approximate
03:05AM 55.1017 -34.5408 90° East  Level FlightAware Approximate
03:06AM 55.1005 -34.2887 90° East  Level FlightAware Approximate
03:07AM 55.0988 -34.0366 91° East  Level FlightAware Approximate
03:08AM 55.0965 -33.7845 91° East  Level FlightAware Approximate
03:09AM 55.0937 -33.5324 91° East  Level FlightAware Approximate
03:10AM 55.0905 -33.2804 91° East  Level FlightAware Approximate
03:11AM 55.0866 -33.0285 91° East  Level FlightAware Approximate
03:12AM 55.0823 -32.7765 92° East  Level FlightAware Approximate
03:13AM 55.0775 -32.5247 92° East  Level FlightAware Approximate
03:14AM 55.0721 -32.2729 92° East  Level FlightAware Approximate
03:15AM 55.0662 -32.0211 92° East  Level FlightAware Approximate
03:16AM 55.0598 -31.7695 92° East  Level FlightAware Approximate
03:17AM 55.0529 -31.5179 93° East  Level FlightAware Approximate
03:18AM 55.0454 -31.2665 93° East  Level FlightAware Approximate
03:19AM 55.0375 -31.0151 93° East  Level FlightAware Approximate
03:20AM 55.0290 -30.7638 93° East  Level FlightAware Approximate
03:21AM 55.0200 -30.5127 93° East  Level FlightAware Approximate
03:22AM 55.0104 -30.2607 94° East  Level FlightAware Approximate
03:23AM 55.0004 -30.0090 94° East  Level FlightAware Approximate
03:24AM 54.9860 -29.7579 96° East  Level FlightAware Approximate
03:25AM 54.9709 -29.5070 96° East  Level FlightAware Approximate
03:26AM 54.9553 -29.2563 96° East  Level FlightAware Approximate
03:27AM 54.9392 -29.0059 96° East  Level FlightAware Approximate
03:28AM 54.9226 -28.7556 96° East  Level FlightAware Approximate
03:29AM 54.9055 -28.5056 97° East  Level FlightAware Approximate
03:30AM 54.8879 -28.2557 97° East  Level FlightAware Approximate
03:31AM 54.8697 -28.0061 97° East  Level FlightAware Approximate
03:32AM 54.8511 -27.7567 97° East  Level FlightAware Approximate
03:33AM 54.8319 -27.5075 98° East  Level FlightAware Approximate
03:34AM 54.8122 -27.2586 98° East  Level FlightAware Approximate
03:35AM 54.7920 -27.0100 98° East  Level FlightAware Approximate
03:36AM 54.7713 -26.7615 98° East  Level FlightAware Approximate
03:37AM 54.7501 -26.5134 98° East  Level FlightAware Approximate
03:38AM 54.7284 -26.2655 99° East  Level FlightAware Approximate
03:39AM 54.7062 -26.0178 99° East  Level FlightAware Approximate
03:40AM 54.6835 -25.7705 99° East  Level FlightAware Approximate
03:41AM 54.6603 -25.5234 99° East  Level FlightAware Approximate
03:42AM 54.6365 -25.2766 99° East  Level FlightAware Approximate
03:43AM 54.6123 -25.0301 100° East  Level FlightAware Approximate
03:44AM 54.5876 -24.7839 100° East  Level FlightAware Approximate
03:45AM 54.5624 -24.5380 100° East  Level FlightAware Approximate
03:46AM 54.5367 -24.2924 100° East  Level FlightAware Approximate
03:47AM 54.5104 -24.0471 100° East  Level FlightAware Approximate
03:48AM 54.4837 -23.8021 101° East  Level FlightAware Approximate
03:49AM 54.4565 -23.5575 101° East  Level FlightAware Approximate
03:50AM 54.4288 -23.3132 101° East  Level FlightAware Approximate
03:51AM 54.4006 -23.0692 101° East  Level FlightAware Approximate
03:52AM 54.3719 -22.8255 101° East  Level FlightAware Approximate
03:53AM 54.3427 -22.5822 102° East  Level FlightAware Approximate
03:54AM 54.3131 -22.3393 102° East  Level FlightAware Approximate
03:55AM 54.2829 -22.0967 102° East  Level FlightAware Approximate
03:56AM 54.2523 -21.8544 102° East  Level FlightAware Approximate
03:57AM 54.2212 -21.6125 102° East  Level FlightAware Approximate
03:58AM 54.1896 -21.3710 103° East  Level FlightAware Approximate
03:59AM 54.1575 -21.1299 103° East  Level FlightAware Approximate
04:00AM 54.1249 -20.8891 103° East  Level FlightAware Approximate
04:01AM 54.0919 -20.6487 103° East  Level FlightAware Approximate
04:02AM 54.0583 -20.4087 103° East  Level FlightAware Approximate
04:03AM 54.0243 -20.1691 103° East  Level FlightAware Approximate
04:04AM 53.9958 -19.9286 96° East  Level FlightAware Approximate
04:05AM 53.9811 -19.6841 96° East  Level FlightAware Approximate
04:06AM 53.9659 -19.4398 96° East  Level FlightAware Approximate
04:07AM 53.9501 -19.1956 96° East  Level FlightAware Approximate
04:08AM 53.9339 -18.9517 96° East  Level FlightAware Approximate
04:09AM 53.9172 -18.7075 97° East  Level FlightAware Approximate
04:10AM 53.9000 -18.4635 97° East  Level FlightAware Approximate
04:11AM 53.8823 -18.2197 97° East  Level FlightAware Approximate
04:12AM 53.8640 -17.9762 97° East  Level FlightAware Approximate
04:13AM 53.8453 -17.7328 97° East  Level FlightAware Approximate
04:14AM 53.8261 -17.4897 98° East  Level FlightAware Approximate
04:15AM 53.8064 -17.2468 98° East  Level FlightAware Approximate
04:16AM 53.7863 -17.0041 98° East  Level FlightAware Approximate
04:17AM 53.7656 -16.7617 98° East  Level FlightAware Approximate
04:18AM 53.7444 -16.5195 98° East  Level FlightAware Approximate
04:19AM 53.7228 -16.2775 99° East  Level FlightAware Approximate
04:20AM 53.7006 -16.0350 99° East  Level FlightAware Approximate
04:21AM 53.6779 -15.7931 99° East  Level FlightAware Approximate
04:22AM 53.6548 -15.5520 99° East  Level FlightAware Approximate
04:23AM 53.6312 -15.3111 99° East  Level FlightAware Approximate
04:24AM 53.6071 -15.0704 99° East  Level FlightAware Approximate
04:25AM 53.5827 -14.8300 100° East  Level FlightAware Approximate
04:25AM 53.8610 -13.7620 100° East 532 612 35,000  Level FlightAware
04:25AM 53.8310 -13.5860 106° East 531 611 35,000  Level FlightAware
04:26AM 53.5579 -14.5899 100° East  Level FlightAware Approximate
04:26AM 53.8070 -13.4470 106° East 529 609 35,000  Level FlightAware
04:27AM 53.7790 -13.2880 107° East 530 610 35,000  Level FlightAware
04:28AM 53.7350 -13.0300 106° East 529 609 35,000  Level FlightAware
04:29AM 53.6860 -12.7520 106° East 530 610 35,000  Level FlightAware
04:30AM 53.6600 -12.6130 107° East 530 610 35,000  Level FlightAware
04:30AM 53.6280 -12.4350 107° East 530 610 35,000  Level FlightAware
04:31AM 53.6000 -12.2810 107° East 530 610 35,000  Level FlightAware
04:32AM 53.5660 -12.0990 107° East 533 613 35,000  Level FlightAware
04:32AM 53.5330 -11.9210 107° East 534 615 35,000  Level FlightAware
04:33AM 53.5030 -11.7630 108° East 535 616 35,000  Level FlightAware
04:34AM 53.4690 -11.5850 108° East 534 615 35,000  Level FlightAware
04:35AM 53.4160 -11.3100 108° East 533 613 35,000  Level FlightAware
04:36AM 53.3820 -11.1340 108° East 532 612 35,000  Level FlightAware
04:36AM 53.3510 -10.9740 108° East 531 611 35,000  Level FlightAware
04:37AM 53.3090 -10.7640 108° East 529 609 35,000  Level FlightAware
04:38AM 53.2810 -10.6240 108° East 527 606 35,000  Level FlightAware
04:39AM 53.2410 -10.4220 108° East 527 606 35,000  Level FlightAware
04:39AM 53.2090 -10.2640 109° East 526 605 35,000  Level FlightAware
04:41AM 53.1330 -9.8980 109° East 528 608 35,000  Level FlightAware
04:42AM 53.0770 -9.6330 109° East 526 605 35,000  Level FlightAware
04:44AM 53.0030 -9.2850 109° East 529 609 35,000  Level FlightAware
04:44AM 52.9710 -9.1360 110° East 528 608 35,000 -1,200 Level FlightAware
04:45AM 52.9396 -8.9890 110° East 500 575 33,500  Descending FlightAware UK
04:45AM 52.9370 -8.9800 110° East 528 608 35,000  Climbing FlightAware
04:45AM 52.9199 -8.8978 110° East 502 578 33,500 -2,432 Descending FlightAware UK
04:46AM 52.9048 -8.8293 110° East 500 575 33,500 3,462 Level FlightAware UK
04:46AM 52.9030 -8.8240 110° East 528 608 35,000  Climbing FlightAware
04:46AM 52.8847 -8.7381 110° East 500 575 33,500 -2,647 Descending FlightAware UK
04:46AM 52.8698 -8.6697 110° East 498 573 33,500 3,750 Level FlightAware UK
04:46AM 52.8680 -8.6650 110° East 528 608 35,000  Climbing FlightAware
04:47AM 52.8496 -8.5785 110° East 502 578 33,500 -2,500 Descending FlightAware UK
04:47AM 52.8344 -8.5102 110° East 504 580 33,500 4,091 Level FlightAware UK
04:47AM 52.8350 -8.5170 110° East 529 609 35,000  Climbing FlightAware
04:47AM 52.8140 -8.4193 110° East 498 573 33,500 -2,368 Descending FlightAware UK
04:48AM 52.7985 -8.3504 110° East 498 573 33,500 3,600 Level FlightAware UK
04:48AM 52.7970 -8.3460 110° East 526 605 35,000  Climbing FlightAware
04:48AM 52.7781 -8.2595 110° East 498 573 33,500 -2,571 Descending FlightAware UK
04:48AM 52.7627 -8.1914 110° East 498 573 33,500 3,913 Level FlightAware UK
04:49AM 52.7630 -8.1950 110° East 528 608 35,000  Climbing FlightAware
04:49AM 52.7423 -8.1004 110° East 496 571 33,500 -2,432 Descending FlightAware UK
04:49AM 52.7267 -8.0322 111° Southeast 498 573 33,500 3,462 Level FlightAware UK
04:49AM 52.7240 -8.0240 111° Southeast 529 609 35,000  Climbing FlightAware
04:50AM 52.7059 -7.9416 111° Southeast 502 578 33,500 -2,647 Descending FlightAware UK
04:50AM 52.6902 -7.8733 111° Southeast 500 575 33,500 3,750 Level FlightAware UK
04:50AM 52.6890 -7.8730 111° Southeast 529 609 35,000  Climbing FlightAware
04:50AM 52.6693 -7.7822 111° Southeast 500 575 33,500 -2,500 Descending FlightAware UK
04:51AM 52.6535 -7.7140 111° Southeast 500 575 33,500 4,091 Level FlightAware UK
04:51AM 52.6550 -7.7210 111° Southeast 529 609 35,000  Climbing FlightAware
04:51AM 52.6326 -7.6230 111° Southeast 500 575 33,500 -2,368 Descending FlightAware UK
04:51AM 52.6168 -7.5548 111° Southeast 500 575 33,500 3,600 Level FlightAware UK
04:51AM 52.6150 -7.5510 111° Southeast 533 613 35,000  Climbing FlightAware
04:52AM 52.5956 -7.4640 111° Southeast 502 578 33,500 -2,571 Descending FlightAware UK
04:52AM 52.5797 -7.3960 111° Southeast 500 575 33,500 3,913 Level FlightAware UK
04:52AM 52.5790 -7.3960 111° Southeast 532 612 35,000  Climbing FlightAware
04:52AM 52.5584 -7.3054 111° Southeast 504 580 33,500 -2,432 Descending FlightAware UK
04:53AM 52.5424 -7.2376 111° Southeast 500 575 33,500 4,286 Level FlightAware UK
04:53AM 52.5440 -7.2490 111° Southeast 532 612 35,000  Climbing FlightAware
04:53AM 52.5263 -7.1699 111° Southeast 500 575 33,500 -2,647 Descending FlightAware UK
04:53AM 52.5101 -7.1016 111° Southeast 498 573 33,500 3,000 Level FlightAware UK
04:53AM 52.5040 -7.0770 111° Southeast 530 610 35,000  Climbing FlightAware
04:54AM 52.4833 -6.9895 111° Southeast 496 571 33,500 -2,432 Descending FlightAware UK
04:54AM 52.4671 -6.9224 112° Southeast 496 571 33,500 4,286 Level FlightAware UK
04:54AM 52.4690 -6.9310 112° Southeast 530 610 35,000  Climbing FlightAware
04:54AM 52.4509 -6.8553 112° Southeast 496 571 33,500 -2,727 Descending FlightAware UK
04:55AM 52.4348 -6.7883 112° Southeast 496 571 33,500 3,600 Level FlightAware UK
04:55AM 52.4340 -6.7890 112° Southeast 531 611 35,000  Climbing FlightAware
04:55AM 52.4131 -6.6989 112° Southeast 494 568 33,500 -2,571 Descending FlightAware UK
04:55AM 52.3969 -6.6317 112° Southeast 496 571 33,500 3,214 Level FlightAware UK
04:56AM 52.3900 -6.6060 112° Southeast 531 611 35,000  Climbing FlightAware
04:56AM 52.3697 -6.5198 112° Southeast 498 573 33,500 -2,368 Descending FlightAware UK
04:56AM 52.3531 -6.4529 112° Southeast 498 573 33,500 4,500 Level FlightAware UK
04:56AM 52.3540 -6.4610 112° Southeast 532 612 35,000  Climbing FlightAware
04:56AM 52.3365 -6.3858 112° Southeast 500 575 33,500 -2,647 Descending FlightAware UK
04:57AM 52.3200 -6.3187 112° Southeast 500 575 33,500 3,750 Level FlightAware UK
04:57AM 52.3150 -6.3040 112° Southeast 531 611 35,000  Climbing FlightAware
04:57AM 52.2923 -6.2072 112° Southeast 500 575 33,500 -2,143 Descending FlightAware UK
04:58AM 52.2756 -6.1403 112° Southeast 498 573 33,500  Level FlightAware UK
04:58AM 52.2592 -6.0734 112° Southeast 496 571 33,500 2,727 Level FlightAware UK
04:58AM 52.2530 -6.0520 112° Southeast 528 608 35,000  Climbing FlightAware
04:58AM 52.2311 -5.9616 112° Southeast 500 575 33,500 -2,727 Descending FlightAware UK
04:59AM 52.2143 -5.8951 112° Southeast 496 571 33,500 2,000 Level FlightAware UK
04:59AM 52.1930 -5.8110 112° Southeast 528 608 35,000  Climbing FlightAware
04:59AM 52.1750 -5.7401 112° Southeast 498 573 33,500 -2,727 Descending FlightAware UK
05:00AM 52.1581 -5.6736 112° Southeast 500 575 33,500 3,600 Level FlightAware UK
05:00AM 52.1530 -5.6560 112° Southeast 531 611 35,000  Climbing FlightAware
05:00AM 52.1301 -5.5629 112° Southeast 498 573 33,500  Descending FlightAware UK
05:00AM 52.1200 -5.5270 112° Southeast 527 606 35,000  Climbing FlightAware
05:01AM 52.0904 -5.4086 112° Southeast 500 575 33,500  Descending FlightAware UK
05:01AM 52.0780 -5.3620 112° Southeast 526 605 35,000  Climbing FlightAware
05:02AM 52.0507 -5.2546 112° Southeast 498 573 33,500  Descending FlightAware UK
05:02AM 52.0240 -5.1530 112° Southeast 527 606 35,000  Climbing FlightAware
05:03AM 51.9925 -5.0100 112° Southeast 494 568 33,500  Descending FlightAware UK
05:03AM 51.9900 -4.9990 112° Southeast 535 616 35,000  Climbing FlightAware
05:03AM 51.9794 -4.9153 112° Southeast 494 568 33,500 -2,571 Descending FlightAware UK
05:03AM 51.9706 -4.8434 101° East 494 568 33,500 3,214 Level FlightAware UK
05:04AM 51.9690 -4.8300 101° East 538 619 35,000  Climbing FlightAware
05:04AM 51.9574 -4.7248 101° East 494 568 33,500  Descending FlightAware UK
05:04AM 51.9510 -4.6670 101° East 539 620 35,000  Climbing FlightAware
05:04AM 51.9416 -4.5819 101° East 498 573 33,500  Descending FlightAware UK
05:05AM 51.9300 -4.4890 101° East 538 619 35,000  Climbing FlightAware
05:05AM 51.9137 -4.3439 101° East 496 571 33,500  Descending FlightAware UK
05:06AM 51.9120 -4.3310 101° East 535 616 35,000  Climbing FlightAware
05:06AM 51.8965 -4.2023 101° East 494 568 33,500  Descending FlightAware UK
05:06AM 51.8950 -4.1940 101° East 535 616 35,000  Climbing FlightAware
05:07AM 51.8792 -4.0609 101° East 494 568 33,500  Descending FlightAware UK
05:07AM 51.8700 -3.9890 101° East 534 615 35,000  Climbing FlightAware
05:07AM 51.8587 -3.8962 101° East 496 571 33,500 -2,368 Descending FlightAware UK
05:08AM 51.8498 -3.8257 101° East 496 571 33,500 4,500 Level FlightAware UK
05:08AM 51.8510 -3.8330 101° East 533 613 35,000  Climbing FlightAware
05:08AM 51.8410 -3.7553 101° East 496 571 33,500 -2,647 Descending FlightAware UK
05:08AM 51.8321 -3.6850 101° East 496 571 33,500 3,750 Level FlightAware UK
05:08AM 51.8310 -3.6760 101° East 532 612 35,000  Climbing FlightAware
05:09AM 51.8201 -3.5913 101° East 494 568 33,500 -2,500 Descending FlightAware UK
05:09AM 51.8111 -3.5212 102° East 494 568 33,500 3,214 Level FlightAware UK
05:09AM 51.8065 -3.4893 102° East 533 613 35,000  Climbing FlightAware ADS-B
05:09AM 51.7959 -3.4037 102° East 496 571 33,500  Descending FlightAware UK
05:10AM 51.7909 -3.3687 102° East 533 613 35,000  Climbing FlightAware ADS-B
05:10AM 51.7807 -3.2872 102° East 494 568 33,500  Descending FlightAware UK
05:10AM 51.7748 -3.2442 102° East 532 612 35,000  Climbing FlightAware ADS-B
05:10AM 51.7653 -3.1700 102° East 494 568 33,500  Descending FlightAware UK
05:11AM 51.7586 -3.1202 102° East 532 612 35,000  Climbing FlightAware ADS-B
05:11AM 51.7469 -3.0304 102° East 492 566 33,500  Descending FlightAware UK
05:11AM 51.7431 -3.0038 102° East 533 613 35,000  Climbing FlightAware ADS-B
05:12AM 51.7316 -2.9141 102° East 492 566 33,500  Descending FlightAware UK
05:12AM 51.7273 -2.8835 102° East 533 613 35,000 2,195 Climbing FlightAware ADS-B
05:12AM 51.7104 -2.7557 102° East 533 613 35,000  Level FlightAware ADS-B
05:13AM 51.6943 -2.6394 103° East 533 613 35,000  Level FlightAware ADS-B
05:13AM 51.6905 -2.6043 100° East 536 617 35,000 -3,000 Level FlightAware ADS-B
05:13AM 51.6828 -2.5154 100° East 486 559 33,500  Descending FlightAware UK
05:13AM 51.6795 -2.4777 100° East 539 620 35,000 2,250 Climbing FlightAware ADS-B
05:14AM 51.6694 -2.3581 98° East 541 623 35,000  Level FlightAware ADS-B
05:14AM 51.6585 -2.2344 98° East 544 626 35,000 -1,800 Level FlightAware ADS-B
05:15AM 51.6514 -2.1562 98° East 488 562 33,500  Descending FlightAware UK
05:15AM 51.6469 -2.1107 98° East 545 627 35,000 2,143 Climbing FlightAware ADS-B
05:15AM 51.6351 -1.9905 99° East 546 628 35,000  Level FlightAware ADS-B
05:16AM 51.6230 -1.8659 99° East 548 631 35,000 -1,875 Level FlightAware ADS-B
05:16AM 51.6158 -1.7943 99° East 494 568 33,500  Descending FlightAware UK
05:17AM 51.6106 -1.7453 99° East 549 632 35,000  Climbing FlightAware ADS-B
05:17AM 51.6012 -1.6496 99° East 494 568 33,500  Descending FlightAware UK
05:17AM 51.5980 -1.6212 99° East 548 631 35,000 2,250 Climbing FlightAware ADS-B
05:18AM 51.5848 -1.4928 99° East 547 629 35,000 -1,915 Level FlightAware ADS-B
05:18AM 51.5789 -1.4322 99° East 492 566 33,500  Descending FlightAware UK
05:18AM 51.5720 -1.3688 99° East 546 628 35,000 1,800 Climbing FlightAware ADS-B
05:19AM 51.5579 -1.2327 99° East 547 629 35,000  Level FlightAware ADS-B
05:19AM 51.5445 -1.1052 100° East 546 628 35,000 -1,731 Level FlightAware ADS-B
05:20AM 51.5362 -1.0231 100° East 492 566 33,500  Descending FlightAware UK
05:20AM 51.5323 -0.9853 100° East 546 628 35,000  Climbing FlightAware ADS-B
05:20AM 51.5239 -0.9034 100° East 488 562 33,500  Descending FlightAware UK
05:20AM 51.5197 -0.8656 100° East 545 627 35,000  Climbing FlightAware ADS-B
05:21AM 51.5113 -0.7839 100° East 488 562 33,500  Descending FlightAware UK
05:21AM 51.5068 -0.7419 100° East 546 628 35,000 2,195 Climbing FlightAware ADS-B
05:21AM 51.4940 -0.6227 100° East 545 627 35,000  Level FlightAware ADS-B
05:22AM 51.4808 -0.4996 100° East 544 626 35,000 -1,636 Level FlightAware ADS-B
05:22AM 51.4703 -0.4010 100° East 488 562 33,500  Descending FlightAware UK
05:22AM 51.4676 -0.3765 100° East 545 627 35,000 2,368 Climbing FlightAware ADS-B
05:23AM 51.4542 -0.2577 100° East 543 625 35,000 -1,875 Level FlightAware ADS-B
05:23AM 51.4466 -0.1861 100° East 488 562 33,500  Descending FlightAware UK
05:23AM 51.4401 -0.1310 100° East 543 625 35,000  Climbing FlightAware ADS-B
05:24AM 51.4305 -0.0432 100° East 490 564 33,500  Descending FlightAware UK
05:24AM 51.4268 -0.0086 100° East 543 625 35,000  Climbing FlightAware ADS-B
05:24AM 51.4173 0.0744 100° East 488 562 33,500  Descending FlightAware UK
05:24AM 51.4122 0.1173 100° East 541 623 35,000  Climbing FlightAware ADS-B
05:25AM 51.4038 0.1933 100° East 488 562 33,500  Descending FlightAware UK
05:25AM 51.3979 0.2431 100° East 541 623 35,000 2,000 Climbing FlightAware ADS-B
05:25AM 51.3836 0.3687 100° East 539 620 35,000  Level FlightAware ADS-B
05:26AM 51.3696 0.4861 101° East 539 620 35,000 -1,765 Level FlightAware ADS-B
05:26AM 51.3601 0.5702 101° East 488 562 33,500  Descending FlightAware UK
05:26AM 51.3555 0.6074 101° East 539 620 35,000  Climbing FlightAware ADS-B
05:27AM 51.3461 0.6882 101° East 488 562 33,500  Descending FlightAware UK
05:27AM 51.3413 0.7285 101° East 538 619 35,000  Climbing FlightAware ADS-B
05:27AM 51.3321 0.8053 101° East 488 562 33,500  Descending FlightAware UK
05:27AM 51.3264 0.8531 101° East 538 619 35,000  Climbing FlightAware ADS-B
05:28AM 51.3181 0.9220 101° East 488 562 33,500  Descending FlightAware UK
05:28AM 51.3116 0.9736 101° East 537 618 35,000  Climbing FlightAware ADS-B
05:28AM 51.3038 1.0393 101° East 488 562 33,500  Descending FlightAware UK
05:29AM 51.2929 1.1249 101° East 536 617 35,000  Climbing FlightAware ADS-B
05:29AM 51.2837 1.2019 101° East 486 559 33,500 -2,432 Descending FlightAware UK
05:29AM 51.2750 1.2723 101° East 486 559 33,500 3,333 Level FlightAware UK
05:29AM 51.2720 1.2910 101° East 535 616 35,000  Climbing FlightAware
05:30AM 51.2635 1.3650 101° East 488 562 33,500  Descending FlightAware UK
05:30AM 51.2520 1.4610 101° East 532 612 35,000  Climbing FlightAware
05:30AM 51.2402 1.5503 101° East 486 559 33,500  Descending FlightAware UK
05:31AM 51.2330 1.6060 101° East 530 610 35,000  Climbing FlightAware
05:31AM 51.2228 1.6880 101° East 486 559 33,500 -2,308 Descending FlightAware UK
05:31AM 51.2110 1.7796 102° East 486 559 33,500 3,000 Level FlightAware UK
05:32AM 51.2100 1.7860 102° East 528 608 35,000  Climbing FlightAware
05:32AM 51.1901 1.9402 102° East 486 559 33,500  Descending FlightAware UK
05:32AM 51.1900 1.9380 102° East 527 606 35,000  Climbing FlightAware
05:33AM 51.1782 2.0315 102° East 488 562 33,500  Descending FlightAware UK
05:33AM 51.1700 2.0940 102° East 527 606 35,000  Climbing FlightAware
05:33AM 51.1541 2.2141 102° East 486 559 33,500  Descending FlightAware UK
05:34AM 51.1470 2.2640 102° East 526 605 35,000  Climbing FlightAware
05:34AM 51.1360 2.3501 102° East 484 557 33,500 -2,432 Descending FlightAware UK
05:34AM 51.1269 2.4181 102° East 484 557 33,500 4,286 Level FlightAware UK
05:34AM 51.1260 2.4230 102° East 526 605 35,000  Climbing FlightAware
05:35AM 51.1146 2.5088 102° East 484 557 33,500  Descending FlightAware UK
05:35AM 51.1024 2.5926 102° East 526 605 35,000  Climbing FlightAware ADS-B
05:35AM 51.0885 2.6895 102° East 482 555 33,500  Descending FlightAware UK
05:36AM 51.0810 2.7270 102° East 524 603 35,000  Climbing FlightAware
05:36AM 51.0603 2.8447 102° East 484 557 33,500 -2,045 Descending FlightAware UK
05:36AM 51.0482 2.9113 106° East 484 557 33,500 3,103 Level FlightAware UK
05:37AM 51.0440 2.9340 106° East 526 605 35,000  Climbing FlightAware
05:37AM 51.0238 3.0442 106° East 484 557 33,500  Descending FlightAware UK
05:37AM 51.0180 3.0750 106° East 525 604 35,000  Climbing FlightAware
05:38AM 50.9946 3.1999 106° East 480 552 33,500  Descending FlightAware UK
05:38AM 50.9890 3.2300 106° East 526 605 35,000  Climbing FlightAware
05:38AM 50.9698 3.3328 106° East 480 552 33,500  Descending FlightAware UK
05:39AM 50.9590 3.3920 106° East 527 606 35,000  Climbing FlightAware
05:39AM 50.9407 3.4882 106° East 478 550 33,500  Descending FlightAware UK
05:39AM 50.9310 3.5370 106° East 529 609 35,000  Climbing FlightAware
05:40AM 50.9112 3.6441 106° East 476 548 33,500 -2,571 Descending FlightAware UK
05:40AM 50.8984 3.7110 107° East 474 545 33,500 5,000 Level FlightAware UK
05:40AM 50.9060 3.6710 107° East 529 609 35,000 1,698 Climbing FlightAware
05:41AM 50.8609 3.9028 107° East 536 617 35,000  Level FlightAware ADS-B
05:42AM 50.8340 4.0380 107° East 539 620 35,000 -1,636 Level FlightAware
05:42AM 50.8196 4.1163 107° East 482 555 33,500  Descending FlightAware UK
05:42AM 50.8050 4.1880 107° East 540 621 35,000  Climbing FlightAware
05:43AM 50.7884 4.2745 107° East 484 557 33,500 -2,308 Descending FlightAware UK
05:43AM 50.7749 4.3431 107° East 486 559 33,500 3,600 Level FlightAware UK
05:43AM 50.7720 4.3580 107° East 539 620 35,000  Climbing FlightAware
05:43AM 50.7570 4.4333 107° East 486 559 33,500  Descending FlightAware UK
05:44AM 50.7370 4.5250 107° East 534 615 35,000 2,647 Climbing FlightAware
05:44AM 50.7280 4.5534 117° Southeast 536 617 35,000  Level FlightAware ADS-B
05:45AM 50.6370 4.7820 122° Southeast 519 597 35,000  Level FlightAware
05:45AM 50.6152 4.8359 122° Southeast 520 598 35,000  Level FlightAware ADS-B
05:46AM 50.5280 5.0500 123° Southeast 517 595 35,000  Level FlightAware
05:47AM 50.4749 5.1759 123° Southeast 518 596 35,000  Level FlightAware ADS-B
05:48AM 50.4150 5.3200 123° Southeast 518 596 35,000  Level FlightAware
05:49AM 50.3620 5.4450 124° Southeast 518 596 35,000  Level FlightAware
05:49AM 50.3114 5.5637 124° Southeast 518 596 35,000  Level FlightAware ADS-B
05:50AM 50.2510 5.7040 124° Southeast 518 596 35,000  Level FlightAware
05:51AM 50.1980 5.8280 124° Southeast 518 596 35,000  Level FlightAware
05:51AM 50.1380 5.9660 124° Southeast 517 595 35,000  Level FlightAware
05:52AM 50.0820 6.0930 124° Southeast 516 594 35,000  Level FlightAware
05:53AM 50.0270 6.2220 124° Southeast 514 592 35,000  Level FlightAware
05:53AM 49.9690 6.3530 125° Southeast 513 590 35,000  Level FlightAware
05:54AM 49.9150 6.4770 124° Southeast 512 589 35,000  Level FlightAware
05:55AM 49.8550 6.6130 124° Southeast 511 588 35,000  Level FlightAware
05:56AM 49.7860 6.7660 125° Southeast 509 586 35,000  Level FlightAware
05:57AM 49.7270 6.8970 125° Southeast 509 586 35,000  Level FlightAware
05:57AM 49.6730 7.0190 124° Southeast 507 583 35,000  Level FlightAware
05:58AM 49.6260 7.1200 126° Southeast 507 583 35,000  Level FlightAware
05:59AM 49.5580 7.2710 125° Southeast 507 583 35,000  Level FlightAware
05:59AM 49.5040 7.3890 125° Southeast 507 583 35,000  Level FlightAware
06:00AM 49.4590 7.4890 125° Southeast 506 582 35,000  Level FlightAware
06:01AM 49.3940 7.6300 125° Southeast 505 581 35,000  Level FlightAware
06:01AM 49.3380 7.7490 126° Southeast 505 581 35,000  Level FlightAware
06:02AM 49.2750 7.8860 125° Southeast 504 580 35,000  Level FlightAware
06:03AM 49.2220 7.9990 126° Southeast 503 579 35,000  Level FlightAware
06:04AM 49.1550 8.1290 128° Southeast 493 567 35,000  Level FlightAware
06:04AM 49.0900 8.2340 133° Southeast 490 564 35,000  Level FlightAware
06:05AM 49.0150 8.3470 135° Southeast 494 568 35,000  Level FlightAware
06:07AM 48.8998 8.6409 121° Southeast  Level Estimated
06:07AM 48.8370 8.6150 121° Southeast 495 570 35,000  Level FlightAware
06:07AM 48.7700 8.7120 136° Southeast 495 570 35,000  Level FlightAware
06:08AM 48.7070 8.8060 135° Southeast 495 570 35,000  Level FlightAware
06:09AM 48.6370 8.9070 136° Southeast 494 568 35,000  Level FlightAware
06:10AM 48.5140 9.0860 136° Southeast 492 566 35,000  Level FlightAware
06:11AM 48.4490 9.1820 136° Southeast 492 566 35,000 343 Level FlightAware
06:12AM 48.2860 9.4170 136° Southeast 493 567 35,800 686 Climbing FlightAware
06:13AM 48.2170 9.5140 137° Southeast 493 567 36,600 847 Climbing FlightAware
06:14AM 48.1330 9.6030 145° Southeast 493 567 37,000 282 Climbing FlightAware
06:14AM 48.0580 9.6820 145° Southeast 493 567 37,000  Level FlightAware
06:15AM 47.9870 9.7580 144° Southeast 498 573 37,000  Level FlightAware
06:17AM 47.7690 9.9900 144° Southeast 492 566 37,000  Level FlightAware
06:18AM 47.6950 10.0660 145° Southeast 493 567 37,000  Level FlightAware
06:18AM 47.6100 10.1530 145° Southeast 494 568 37,000  Level FlightAware
06:19AM 47.5340 10.2310 145° Southeast 494 568 37,000  Level FlightAware
06:20AM 47.4480 10.3160 146° Southeast 494 568 37,000  Level FlightAware
06:21AM 47.3720 10.3950 145° Southeast 494 568 37,000  Level FlightAware
06:21AM 47.2910 10.4760 146° Southeast 493 567 37,000  Level FlightAware
06:22AM 47.2150 10.5500 147° Southeast 493 567 37,000  Level FlightAware
06:23AM 47.1430 10.6230 145° Southeast 493 567 37,000  Level FlightAware
06:23AM 47.0490 10.7340 141° Southeast 499 574 37,000  Level FlightAware
06:24AM 46.9880 10.8270 134° Southeast 505 581 37,000  Level FlightAware
06:25AM 46.9220 10.9330 132° Southeast 505 581 37,000  Level FlightAware
06:25AM 46.8510 11.0450 133° Southeast 498 573 37,000  Level FlightAware
06:26AM 46.7970 11.1260 134° Southeast 499 574 37,000  Level FlightAware
06:27AM 46.7290 11.2330 133° Southeast 497 572 37,000  Level FlightAware
06:28AM 46.6510 11.3520 134° Southeast 494 568 37,000  Level FlightAware
06:28AM 46.5910 11.4420 134° Southeast 493 567 37,000  Level FlightAware
06:29AM 46.5120 11.5630 133° Southeast 493 567 37,000  Level FlightAware
06:30AM 46.4560 11.6480 134° Southeast 492 566 37,000  Level FlightAware
06:30AM 46.3870 11.7510 134° Southeast 492 566 37,000  Level FlightAware
06:31AM 46.3120 11.8640 134° Southeast 493 567 37,000  Level FlightAware
06:32AM 46.2320 11.9840 134° Southeast 493 567 37,000  Level FlightAware
06:33AM 46.1610 12.0920 133° Southeast 493 567 37,000  Level FlightAware
06:33AM 46.0960 12.1870 135° Southeast 494 568 37,000  Level FlightAware
06:34AM 46.0240 12.2920 135° Southeast 494 568 37,000  Level FlightAware
06:35AM 45.9520 12.4000 134° Southeast 496 571 37,000  Level FlightAware
06:36AM 45.8140 12.6020 134° Southeast 502 578 37,000  Level FlightAware
06:37AM 45.7480 12.6990 134° Southeast 502 578 37,000  Level FlightAware
06:38AM 45.6650 12.8360 131° Southeast 497 572 37,000  Level FlightAware
06:39AM 45.6040 12.9510 127° Southeast 498 573 37,000  Level FlightAware
06:39AM 45.5450 13.0620 127° Southeast 503 579 37,000  Level FlightAware
06:40AM 45.4920 13.1610 127° Southeast 499 574 37,000  Level FlightAware
06:41AM 45.4380 13.2650 126° Southeast 499 574 37,000  Level FlightAware
06:41AM 45.3710 13.3920 127° Southeast 504 580 37,000  Level FlightAware
06:42AM 45.3100 13.5060 127° Southeast 504 580 37,000  Level FlightAware
06:43AM 45.2650 13.5900 127° Southeast 504 580 37,000  Level FlightAware
06:43AM 45.1950 13.7190 128° Southeast 505 581 37,000  Level FlightAware
06:44AM 45.1450 13.8140 127° Southeast 506 582 37,000  Level FlightAware
06:45AM 45.0740 13.9460 127° Southeast 507 583 37,000  Level FlightAware
06:45AM 45.0170 14.0510 127° Southeast 507 583 37,000  Level FlightAware
06:46AM 44.9600 14.1540 128° Southeast 508 585 37,000  Level FlightAware
06:47AM 44.8970 14.2730 127° Southeast 509 586 37,000  Level FlightAware
06:48AM 44.7940 14.4590 128° Southeast 505 581 37,000  Level FlightAware
06:49AM 44.7270 14.5830 127° Southeast 507 583 37,000  Level FlightAware
06:50AM 44.6500 14.7220 128° Southeast 507 583 37,000  Level FlightAware
06:51AM 44.5520 14.8980 128° Southeast 509 586 37,000  Level FlightAware
06:51AM 44.5020 14.9880 128° Southeast 510 587 37,000  Level FlightAware
06:52AM 44.4380 15.1030 128° Southeast 510 587 37,000  Level FlightAware
06:53AM 44.3880 15.1890 129° Southeast 511 588 37,000  Level FlightAware
06:54AM 44.3090 15.3280 128° Southeast 517 595 37,000  Level FlightAware
06:54AM 44.2450 15.4440 128° Southeast 519 597 37,000  Level FlightAware
06:55AM 44.1840 15.5510 128° Southeast 519 597 37,000  Level FlightAware
06:56AM 44.1180 15.6660 129° Southeast 518 596 37,000  Level FlightAware
06:56AM 44.0570 15.7730 128° Southeast 518 596 37,000  Level FlightAware
06:57AM 43.9980 15.8740 129° Southeast 518 596 37,000  Level FlightAware
06:58AM 43.9290 15.9930 129° Southeast 518 596 37,000  Level FlightAware
06:59AM 43.8690 16.0970 129° Southeast 517 595 37,000  Level FlightAware
06:59AM 43.8010 16.2160 128° Southeast 519 597 37,000  Level FlightAware
07:00AM 43.7410 16.3160 130° Southeast 519 597 37,000  Level FlightAware
07:01AM 43.6800 16.4200 129° Southeast 514 592 37,000  Level FlightAware
07:01AM 43.6150 16.5330 128° Southeast 514 592 37,000  Level FlightAware
07:02AM 43.5620 16.6200 130° Southeast 514 592 37,000  Level FlightAware
07:03AM 43.4910 16.7400 129° Southeast 514 592 37,000  Level FlightAware
07:03AM 43.4240 16.8530 129° Southeast 514 592 37,000  Level FlightAware
07:04AM 43.3630 16.9550 129° Southeast 514 592 37,000  Level FlightAware
07:05AM 43.2930 17.0720 129° Southeast 514 592 37,000  Level FlightAware
07:06AM 43.2340 17.1710 129° Southeast 514 592 37,000  Level FlightAware
07:06AM 43.1630 17.2870 130° Southeast 515 593 37,000  Level FlightAware
07:07AM 43.1020 17.3890 129° Southeast 516 594 37,000  Level FlightAware
07:08AM 43.0360 17.4970 130° Southeast 516 594 37,000  Level FlightAware
07:08AM 42.9700 17.6060 130° Southeast 516 594 37,000  Level FlightAware
07:09AM 42.9010 17.7170 130° Southeast 516 594 37,000  Level FlightAware
07:10AM 42.8380 17.8180 130° Southeast 515 593 37,000  Level FlightAware
07:10AM 42.7770 17.9180 130° Southeast 514 592 37,000  Level FlightAware
07:11AM 42.7300 17.9950 130° Southeast 519 597 37,000  Level FlightAware
07:12AM 42.6410 18.1370 130° Southeast 517 595 37,000  Level FlightAware
07:13AM 42.5680 18.2520 131° Southeast 514 592 37,000  Level FlightAware
07:13AM 42.5000 18.3420 136° Southeast 514 592 37,000  Level FlightAware
07:14AM 42.4330 18.4300 136° Southeast 514 592 37,000  Level FlightAware
07:15AM 42.3590 18.5300 135° Southeast 514 592 37,000  Level FlightAware
07:15AM 42.2910 18.6230 135° Southeast 514 592 37,000  Level FlightAware
07:16AM 42.2230 18.7150 135° Southeast 516 594 37,000  Level FlightAware
07:17AM 42.1650 18.7940 135° Southeast 517 595 37,000  Level FlightAware
07:17AM 42.0790 18.9080 135° Southeast 516 594 37,000  Level FlightAware
07:18AM 42.0050 19.0080 135° Southeast 515 593 37,000  Level FlightAware
07:19AM 41.9370 19.1000 135° Southeast 514 592 37,000  Level FlightAware
07:20AM 41.8690 19.1900 135° Southeast 515 593 37,000  Level FlightAware
07:20AM 41.7900 19.2930 136° Southeast 516 594 37,000  Level FlightAware
07:21AM 41.6980 19.4100 136° Southeast 520 598 37,000  Level FlightAware
07:22AM 41.6280 19.5000 136° Southeast 521 600 37,000  Level FlightAware
07:23AM 41.5470 19.6050 136° Southeast 524 603 37,000  Level FlightAware
07:23AM 41.4780 19.6920 137° Southeast 527 606 37,000  Level FlightAware
07:24AM 41.3980 19.7920 137° Southeast 526 605 37,000  Level FlightAware
07:25AM 41.3300 19.8790 136° Southeast 524 603 37,000  Level FlightAware
07:25AM 41.2480 19.9800 137° Southeast 521 600 37,000  Level FlightAware
07:26AM 41.1770 20.0700 136° Southeast 517 595 37,000  Level FlightAware
07:27AM 41.1070 20.1570 137° Southeast 514 592 37,000  Level FlightAware
07:28AM 41.0320 20.2520 136° Southeast 512 589 37,000  Level FlightAware
07:28AM 40.9640 20.3350 137° Southeast 512 589 37,000  Level FlightAware
07:29AM 40.8920 20.4230 137° Southeast 511 588 37,000  Level FlightAware
07:30AM 40.8190 20.5150 136° Southeast 512 589 37,000  Level FlightAware
07:30AM 40.7460 20.6040 137° Southeast 512 589 37,000  Level FlightAware
07:31AM 40.6570 20.7120 137° Southeast 507 583 37,000  Level FlightAware
07:32AM 40.5810 20.8110 135° Southeast 509 586 37,000  Level FlightAware
07:33AM 40.5160 20.9030 133° Southeast 510 587 37,000  Level FlightAware
07:33AM 40.4520 20.9960 132° Southeast 511 588 37,000  Level FlightAware
07:34AM 40.3800 21.1020 132° Southeast 513 590 37,000  Level FlightAware
07:35AM 40.3170 21.1960 131° Southeast 514 592 37,000  Level FlightAware
07:35AM 40.2440 21.3010 132° Southeast 516 594 37,000  Level FlightAware
07:36AM 40.1790 21.3940 132° Southeast 516 594 37,000  Level FlightAware
07:37AM 40.1060 21.4990 132° Southeast 522 601 37,000  Level FlightAware
07:38AM 40.0410 21.5950 131° Southeast 522 601 37,000  Level FlightAware
07:38AM 39.9760 21.6860 133° Southeast 523 602 37,000  Level FlightAware
07:39AM 39.9030 21.7920 132° Southeast 523 602 37,000  Level FlightAware
07:40AM 39.8390 21.8850 132° Southeast 523 602 37,000  Level FlightAware
07:40AM 39.7720 21.9780 133° Southeast 523 602 37,000  Level FlightAware
07:41AM 39.6990 22.0820 132° Southeast 523 602 37,000  Level FlightAware
07:42AM 39.6420 22.1650 132° Southeast 522 601 37,000  Level FlightAware
07:42AM 39.5600 22.2780 133° Southeast 520 598 37,000  Level FlightAware
07:43AM 39.4970 22.3670 133° Southeast 521 600 37,000  Level FlightAware
07:44AM 39.4220 22.4730 132° Southeast 520 598 37,000  Level FlightAware
07:45AM 39.3560 22.5640 133° Southeast 519 597 37,000  Level FlightAware
07:45AM 39.2910 22.6550 133° Southeast 518 596 37,000  Level FlightAware
07:46AM 39.2170 22.7570 133° Southeast 518 596 37,000  Level FlightAware
07:47AM 39.1530 22.8470 133° Southeast 517 595 37,000  Level FlightAware
07:47AM 39.0880 22.9370 133° Southeast 518 596 37,000  Level FlightAware
07:48AM 39.0150 23.0360 133° Southeast 517 595 37,000  Level FlightAware
07:49AM 38.9430 23.1350 133° Southeast 514 592 37,000  Level FlightAware
07:49AM 38.8690 23.2370 133° Southeast 514 592 37,000  Level FlightAware
07:50AM 38.8020 23.3280 133° Southeast 514 592 37,000  Level FlightAware
07:51AM 38.7320 23.4230 133° Southeast 513 590 37,000  Level FlightAware
07:52AM 38.6650 23.5140 133° Southeast 512 589 37,000  Level FlightAware
07:52AM 38.6000 23.6020 133° Southeast 512 589 37,000  Level FlightAware
07:53AM 38.5250 23.7030 133° Southeast 513 590 37,000  Level FlightAware
07:54AM 38.4590 23.7910 134° Southeast 513 590 37,000  Level FlightAware
07:54AM 38.3950 23.8770 134° Southeast 514 592 37,000  Level FlightAware
07:55AM 38.3220 23.9730 134° Southeast 514 592 37,000  Level FlightAware
07:56AM 38.2550 24.0630 133° Southeast 513 590 37,000  Level FlightAware
07:56AM 38.1840 24.1560 134° Southeast 514 592 37,000  Level FlightAware
07:57AM 38.1150 24.2480 134° Southeast 515 593 37,000  Level FlightAware
07:58AM 38.0420 24.3460 133° Southeast 515 593 37,000  Level FlightAware
07:59AM 37.9750 24.4330 134° Southeast 517 595 37,000  Level FlightAware
07:59AM 37.9100 24.5190 134° Southeast 517 595 37,000  Level FlightAware
08:00AM 37.8330 24.6190 134° Southeast 518 596 37,000  Level FlightAware
08:01AM 37.7660 24.7080 134° Southeast 518 596 37,000  Level FlightAware
08:01AM 37.6910 24.8040 135° Southeast 519 597 37,000  Level FlightAware
08:02AM 37.6260 24.8880 134° Southeast 519 597 37,000  Level FlightAware
08:03AM 37.5580 24.9770 134° Southeast 519 597 37,000  Level FlightAware
08:03AM 37.4800 25.0770 134° Southeast 520 598 37,000  Level FlightAware
08:04AM 37.4120 25.1630 135° Southeast 521 600 37,000  Level FlightAware
08:05AM 37.3460 25.2500 134° Southeast 521 600 37,000  Level FlightAware
08:06AM 37.2710 25.3450 135° Southeast 521 600 37,000  Level FlightAware
08:06AM 37.2030 25.4310 135° Southeast 521 600 37,000  Level FlightAware
08:07AM 37.1420 25.5160 132° Southeast 520 598 37,000  Level FlightAware
08:08AM 37.0770 25.6290 126° Southeast 520 598 37,000  Level FlightAware
08:08AM 37.0230 25.7320 123° Southeast 519 597 37,000  Level FlightAware
08:09AM 36.9630 25.8450 124° Southeast 518 596 37,000  Level FlightAware
08:10AM 36.9090 25.9470 123° Southeast 517 595 37,000  Level FlightAware
08:10AM 36.8570 26.0430 124° Southeast 516 594 37,000  Level FlightAware
08:11AM 36.7970 26.1550 124° Southeast 517 595 37,000  Level FlightAware
08:12AM 36.7440 26.2530 124° Southeast 515 593 37,000  Level FlightAware
08:13AM 36.6850 26.3620 124° Southeast 515 593 37,000  Level FlightAware
08:13AM 36.6280 26.4650 125° Southeast 516 594 37,000  Level FlightAware
08:14AM 36.5750 26.5600 125° Southeast 515 593 37,000  Level FlightAware
08:15AM 36.5150 26.6680 125° Southeast 515 593 37,000  Level FlightAware
08:15AM 36.4620 26.7660 124° Southeast 515 593 37,000  Level FlightAware
08:16AM 36.4280 26.8270 125° Southeast 514 592 37,000  Level FlightAware
08:17AM 36.3660 26.9380 125° Southeast 515 593 37,000  Level FlightAware
08:17AM 36.3000 27.0570 125° Southeast 515 593 37,000  Level FlightAware
08:18AM 36.2320 27.1790 125° Southeast 514 592 37,000  Level FlightAware
08:19AM 36.1700 27.2870 125° Southeast 514 592 37,000  Level FlightAware
08:20AM 36.1240 27.3690 125° Southeast 515 593 37,000  Level FlightAware
08:20AM 36.0500 27.5000 125° Southeast 515 593 37,000  Level FlightAware
08:21AM 35.9920 27.6030 125° Southeast 514 592 37,000  Level FlightAware
08:22AM 35.9520 27.6730 125° Southeast 514 592 37,000  Level FlightAware
08:23AM 35.8780 27.8030 125° Southeast 515 593 37,000  Level FlightAware
08:23AM 35.8350 27.8800 125° Southeast 515 593 37,000  Level FlightAware
08:24AM 35.7660 27.9970 126° Southeast 516 594 37,000  Level FlightAware
08:25AM 35.7170 28.0840 125° Southeast 516 594 37,000  Level FlightAware
08:25AM 35.6640 28.1750 126° Southeast 516 594 37,000  Level FlightAware
08:26AM 35.5830 28.3160 125° Southeast 516 594 37,000  Level FlightAware
08:27AM 35.5170 28.4310 125° Southeast 511 588 37,000  Level FlightAware
08:28AM 35.4300 28.5830 125° Southeast 511 588 37,000  Level FlightAware
08:29AM 35.3720 28.6790 127° Southeast 518 596 37,000  Level FlightAware
08:30AM 35.2840 28.8300 125° Southeast 518 596 37,000  Level FlightAware
08:30AM 35.2310 28.9200 126° Southeast 519 597 37,000  Level FlightAware
08:32AM 35.1190 29.1080 126° Southeast 520 598 37,000  Level FlightAware
08:32AM 35.0510 29.2220 126° Southeast 520 598 37,000  Level FlightAware
08:33AM 34.9730 29.3520 126° Southeast 519 597 37,000  Level FlightAware
08:34AM 34.9470 29.3970 125° Southeast 519 597 37,000  Level FlightAware
08:35AM 34.8490 29.5600 126° Southeast 519 597 37,000  Level FlightAware
08:35AM 34.7930 29.6520 127° Southeast 520 598 37,000  Level FlightAware
08:36AM 34.7270 29.7630 126° Southeast 521 600 37,000  Level FlightAware
08:38AM 34.6110 29.9530 127° Southeast 521 600 37,000  Level FlightAware
08:38AM 34.5570 30.0510 124° Southeast 523 602 37,000  Level FlightAware
08:39AM 34.5120 30.1500 119° Southeast 525 604 37,000  Level FlightAware
08:40AM 34.4200 30.3440 120° Southeast 523 602 37,000  Level FlightAware
08:42AM 34.2790 30.6350 120° Southeast 523 602 37,000  Level FlightAware
08:44AM 34.1600 30.8800 120° Southeast 520 598 37,000  Level FlightAware
08:45AM 34.0980 31.0100 120° Southeast 519 597 37,000  Level FlightAware
08:46AM 33.9760 31.2550 121° Southeast 515 593 37,000  Level FlightAware
08:47AM 33.8970 31.4150 121° Southeast 517 595 37,000  Level FlightAware
08:48AM 33.8040 31.6020 121° Southeast 521 600 37,000  Level FlightAware
08:50AM 33.7040 31.8030 121° Southeast 528 608 37,000  Level FlightAware
08:51AM 33.6280 31.9540 121° Southeast 529 609 37,000  Level FlightAware
08:52AM 33.5200 32.1670 121° Southeast 528 608 37,000  Level FlightAware
08:53AM 33.4500 32.3070 121° Southeast 527 606 37,000  Level FlightAware
08:54AM 33.3920 32.4220 121° Southeast 527 606 37,000  Level FlightAware
08:55AM 33.3460 32.5110 122° Southeast 527 606 37,000  Level FlightAware
08:55AM 33.2960 32.6090 121° Southeast 528 608 37,000 -71 Level FlightAware
08:56AM 33.2340 32.7280 122° Southeast 529 609 36,900 -1,412 Descending FlightAware
08:57AM 33.1840 32.8260 121° Southeast 534 615 35,000 -2,560 Descending FlightAware
08:57AM 33.1360 32.9200 121° Southeast 518 596 33,700 -2,118 Descending FlightAware
08:58AM 33.0730 33.0420 122° Southeast 501 577 32,000 -2,333 Descending FlightAware
08:59AM 33.0240 33.1360 122° Southeast 501 577 30,200 -2,480 Descending FlightAware
08:59AM 32.9830 33.2140 122° Southeast 495 570 28,900 -2,400 Descending FlightAware
09:00AM 32.9160 33.3260 125° Southeast 486 559 26,800 -2,533 Descending FlightAware
09:01AM 32.8630 33.4120 126° Southeast 479 551 25,100 -2,471 Descending FlightAware
09:02AM 32.7950 33.4990 133° Southeast 467 537 23,300 -2,400 Descending FlightAware
09:02AM 32.7380 33.5760 131° Southeast 465 535 21,700 -2,329 Descending FlightAware
09:03AM 32.6860 33.6690 124° Southeast 455 524 20,000 -2,259 Descending FlightAware
09:04AM 32.6380 33.7540 124° Southeast 442 509 18,500 -2,188 Descending FlightAware
09:04AM 32.5880 33.8390 125° Southeast 426 490 16,900 -2,329 Descending FlightAware
09:05AM 32.5440 33.9180 123° Southeast 419 482 15,200 -2,400 Descending FlightAware
09:06AM 32.5010 33.9920 125° Southeast 406 467 13,700 -2,259 Descending FlightAware
09:06AM 32.4550 34.0720 124° Southeast 396 456 12,000 -2,259 Descending FlightAware
09:07AM 32.4130 34.1450 124° Southeast 388 447 10,500 -2,143 Descending FlightAware
09:08AM 32.3820 34.1970 125° Southeast 380 437 9,500 -2,073 Descending FlightAware
09:08AM 32.3580 34.2400 123° Southeast 373 429 8,600 -2,073 Descending FlightAware
09:09AM 32.3300 34.2880 125° Southeast 366 421 7,600 -2,000 Descending FlightAware
09:09AM 32.3140 34.3160 124° Southeast 362 417 7,100 -764 Descending FlightAware
09:09AM 32.2810 34.3740 124° Southeast 356 410 6,900 -585 Descending FlightAware
09:12AM 32.1061 34.6621 125° Southeast  Level FlightAware Approximate
09:12AM 32.1610 34.5930 125° Southeast 273 314 5,100  Level FlightAware
09:13AM 32.1320 34.6470 122° Southeast 272 313 5,100  Level FlightAware
09:13AM 32.1090 34.6880 124° Southeast 252 290 5,100  Level FlightAware
09:14AM 32.0940 34.7150 123° Southeast 244 281 5,100  Level FlightAware
09:14AM 32.0770 34.7470 122° Southeast 221 254 5,100  Level FlightAware
09:15AM 32.0600 34.7750 126° Southeast 218 251 5,100 -218 Level FlightAware
09:15AM 32.0420 34.7950 137° Southeast 217 250 4,900 -436 Descending FlightAware
09:16AM 32.0200 34.8200 136° Southeast 219 252 4,700 -267 Descending FlightAware
09:16AM 32.0080 34.8340 135° Southeast 220 253 4,700 -750 Level FlightAware
09:16AM 31.9920 34.8560 131° Southeast 223 257 4,200 -1,527 Descending FlightAware
09:17AM 31.9750 34.8890 121° Southeast 228 262 3,300 -1,200 Descending FlightAware
09:17AM 31.9640 34.9150 116° Southeast 212 244 3,100 -86 Descending FlightAware
09:18AM 31.9720 34.9590 78° East 191 220 3,200  Climbing FlightAware
09:18AM 31.9760 34.9630 40° Northeast 179 206 3,100 -1,200 Descending FlightAware
09:19AM 31.9770 34.9640 40° Northeast 144 166 2,300 -1,091 Descending FlightAware
09:20AM 32.0270 34.9260 327° Northwest 135 155 1,100 -1,129 Descending FlightAware
09:20AM 32.0230 34.9420 106° East 135 155 700 -1,600 Descending FlightAware

Login

Don't have an account? Register now (free) for customized features, flight alerts, and more!